• Join FlightAware (Why Join?)
  • Login
  • US Flag GB Flag 
16:54 EST


 

Airport Tracker/Info


-or-


 

Live Flight TrackerFlight Track Log ✈ N559LC ✈ 26-Jul-2013 ✈ KDTW - CYLW

Flight Track Log - Related Links

Times and Time Zones

All times are in EDT time to prevent confusion due to time zone crossing. See the N559LC flight status page for this flight to view local times or setup timezone preferences in your user account.

Time Position Orientation Groundspeed Altitude Reporting Facility
EDT Latitude Longitude Course Direction KTS MPH feet Rate Location/Type
15:26 42.3118 -83.3500 North  Level FlightAware Approximate
15:27 42.4236 -83.3500 North  Level FlightAware Approximate
15:28 42.5354 -83.3500 North  Level FlightAware Approximate
15:29 42.6472 -83.3500 North  Level FlightAware Approximate
15:30 42.7590 -83.3500 North  Level FlightAware Approximate
15:31 42.8703 -83.3568 346° North  Level FlightAware Approximate
15:32 42.9812 -83.3667 North  Level FlightAware Approximate
15:33 43.0908 -83.3811 336° Northwest  Level FlightAware Approximate
15:34 43.1924 -83.4449 334° Northwest  Level FlightAware Approximate
15:35 43.2949 -83.5058 340° North  Level FlightAware Approximate
15:36 43.3957 -83.5719 333° Northwest  Level FlightAware Approximate
15:37 43.4898 -83.6496 299° West  Level FlightAware Approximate
15:38 43.5317 -83.7914 285° West  Level FlightAware Approximate
15:39 43.5657 -83.9381 292° West  Level FlightAware Approximate
15:40 43.6067 -84.0817 292° West  Level FlightAware Approximate
15:41 43.6415 -84.2284 287° West  Level FlightAware Approximate
15:42 43.6753 -84.3758 288° West  Level FlightAware Approximate
15:43 43.7170 -84.5179 289° West  Level FlightAware Approximate
15:44 43.7537 -84.6640 289° West  Level FlightAware Approximate
15:45 43.7902 -84.8103 289° West  Level FlightAware Approximate
15:46 43.8261 -84.9571 288° West  Level FlightAware Approximate
15:47 43.8604 -85.1047 288° West  Level FlightAware Approximate
15:48 43.8944 -85.2524 288° West  Level FlightAware Approximate
15:49 43.9283 -85.4003 288° West  Level FlightAware Approximate
15:50 43.9620 -85.5484 288° West  Level FlightAware Approximate
15:51 43.9955 -85.6966 287° West  Level FlightAware Approximate
15:52 44.0293 -85.8448 288° West  Level FlightAware Approximate
15:53 44.0630 -85.9931 288° West  Level FlightAware Approximate
15:54 44.0965 -86.1416 287° West  Level FlightAware Approximate
15:55 44.1298 -86.2903 287° West  Level FlightAware Approximate
15:56 44.1629 -86.4391 287° West  Level FlightAware Approximate
15:57 44.1958 -86.5881 287° West  Level FlightAware Approximate
15:58 44.2286 -86.7372 287° West  Level FlightAware Approximate
15:59 44.2611 -86.8866 287° West  Level FlightAware Approximate
16:00 44.2934 -87.0360 287° West  Level FlightAware Approximate
16:01 44.3256 -87.1857 287° West  Level FlightAware Approximate
16:02 44.3581 -87.3353 288° West  Level FlightAware Approximate
16:03 44.3924 -87.4842 288° West  Level FlightAware Approximate
16:04 44.4264 -87.6332 288° West  Level FlightAware Approximate
16:05 44.4603 -87.7825 288° West  Level FlightAware Approximate
16:06 44.4939 -87.9319 288° West  Level FlightAware Approximate
16:07 44.5274 -88.0815 287° West  Level FlightAware Approximate
16:08 44.5639 -88.2296 293° West  Level FlightAware Approximate
16:09 44.6072 -88.3744 293° West  Level FlightAware Approximate
16:10 44.6503 -88.5193 293° West  Level FlightAware Approximate
16:11 44.6933 -88.6645 293° West  Level FlightAware Approximate
16:12 44.7361 -88.8099 293° West  Level FlightAware Approximate
16:13 44.7786 -88.9555 292° West  Level FlightAware Approximate
16:14 44.8210 -89.1013 292° West  Level FlightAware Approximate
16:15 44.8632 -89.2473 292° West  Level FlightAware Approximate
16:16 44.9053 -89.3935 292° West  Level FlightAware Approximate
16:17 44.9471 -89.5400 292° West  Level FlightAware Approximate
16:18 44.9887 -89.6866 292° West  Level FlightAware Approximate
16:19 45.0302 -89.8335 292° West  Level FlightAware Approximate
16:20 45.0715 -89.9806 292° West  Level FlightAware Approximate
16:21 45.1125 -90.1279 292° West  Level FlightAware Approximate
16:22 45.1534 -90.2754 292° West  Level FlightAware Approximate
16:23 45.1941 -90.4231 291° West  Level FlightAware Approximate
16:24 45.2346 -90.5710 291° West  Level FlightAware Approximate
16:25 45.2750 -90.7192 291° West  Level FlightAware Approximate
16:26 45.3158 -90.8672 292° West  Level FlightAware Approximate
16:27 45.3566 -91.0153 291° West  Level FlightAware Approximate
16:28 45.3972 -91.1636 291° West  Level FlightAware Approximate
16:29 45.4376 -91.3121 291° West  Level FlightAware Approximate
16:29 42.2100 -83.3531 291° West 168 193 1,300  Level Cleveland Center
16:30 45.4778 -91.4608 291° West  Level FlightAware Approximate
16:30 42.1883 -83.3828 225° Southwest 205 236 2,800  Level Cleveland Center
16:31 45.5178 -91.6098 291° West  Level FlightAware Approximate
16:31 42.1508 -83.4708 240° Southwest 262 302 5,900  Level Cleveland Center
16:32 45.5576 -91.7589 291° West  Level FlightAware Approximate
16:32 42.1825 -83.5422 301° West 283 326 8,700  Level Cleveland Center
16:32 42.2069 -83.5631 328° Northwest 289 333 9,600 1,020 Climbing Cleveland Center
16:33 45.5973 -91.9083 291° West  Level FlightAware Approximate
16:33 42.2969 -83.6236 334° Northwest 314 361 10,300  Level Cleveland Center
16:34 45.6367 -92.0579 291° West  Level FlightAware Approximate
16:34 42.3883 -83.6336 355° North 329 379 11,200  Level Cleveland Center
16:35 42.4978 -83.6022 12° North 364 419 13,200 2,160 Climbing Cleveland Center
16:36 42.6014 -83.5478 21° North 370 426 15,600 2,160 Climbing Cleveland Center
16:37 42.7069 -83.5697 351° North 376 433 17,600 1,980 Climbing Cleveland Center
16:38 42.8006 -83.6564 326° Northwest 371 427 19,600 2,100 Climbing Cleveland Center
16:39 42.8900 -83.7431 325° Northwest 376 433 21,800 2,100 Climbing Cleveland Center
16:40 42.9856 -83.8300 326° Northwest 403 464 23,800 1,920 Climbing Cleveland Center
16:41 43.0831 -83.9206 326° Northwest 416 479 25,700 1,740 Climbing Cleveland Center
16:42 43.1803 -84.0142 325° Northwest 421 484 27,300 1,800 Climbing Cleveland Center
16:43 43.2778 -84.1050 326° Northwest 421 484 29,300 1,680 Climbing Cleveland Center
16:45 43.4764 -84.2947 325° Northwest 444 511 32,500 1,800 Climbing Minneapolis Center
16:47 43.5956 -84.4097 325° Northwest 440 506 34,900 2,100 Climbing Minneapolis Center
16:48 43.6783 -84.5139 318° Northwest 418 481 36,900 1,560 Climbing Minneapolis Center
16:49 43.7414 -84.6375 305° West 399 459 38,200 960 Climbing Minneapolis Center
16:50 43.7819 -84.7747 292° West 390 449 39,000 540 Climbing Minneapolis Center
16:51 43.8156 -84.9172 288° West 390 449 39,400 480 Climbing Minneapolis Center
16:52 43.8517 -85.0644 289° West 400 460 40,000 240 Climbing Minneapolis Center
16:53 43.8942 -85.2417 288° West 406 467 40,000  Level Minneapolis Center
16:54 43.9289 -85.3881 288° West 404 465 40,000  Level Minneapolis Center
16:55 43.9639 -85.5364 288° West 405 466 40,000  Level Minneapolis Center
16:56 43.9997 -85.6856 289° West 408 470 40,000  Level Minneapolis Center
16:57 44.0339 -85.8358 288° West 410 472 40,000  Level Minneapolis Center
16:58 44.0767 -86.0169 288° West 412 474 40,000  Level Minneapolis Center
16:59 44.1092 -86.1589 288° West 409 471 40,000  Level Minneapolis Center
17:00 44.1431 -86.3086 288° West 406 467 40,000  Level Minneapolis Center
17:01 44.1789 -86.4619 288° West 412 474 40,000  Level Minneapolis Center
17:02 44.2194 -86.6442 287° West 410 472 40,000 60 Level Minneapolis Center
17:03 44.2542 -86.7975 288° West 412 474 40,200 360 Climbing Minneapolis Center
17:04 44.2869 -86.9489 287° West 408 470 40,800 540 Climbing Minneapolis Center
17:05 44.3206 -87.0981 288° West 403 464 41,400 540 Climbing Minneapolis Center
17:06 44.3558 -87.2542 288° West 390 449 42,000 360 Climbing Minneapolis Center
17:07 44.3869 -87.3986 287° West 389 448 42,200 120 Climbing Minneapolis Center
17:08 44.4181 -87.5453 287° West 391 450 42,300 60 Climbing Minneapolis Center
17:09 44.4500 -87.6942 287° West 398 458 42,400 120 Climbing Minneapolis Center
17:10 44.4847 -87.8583 287° West 397 457 42,600 240 Climbing Minneapolis Center
17:11 44.5169 -88.0153 286° West 398 458 42,900 180 Climbing Minneapolis Center
17:12 44.5489 -88.1664 287° West 404 465 43,000  Climbing Minneapolis Center
17:13 44.5897 -88.3128 291° West 405 466 43,000  Level Minneapolis Center
17:14 44.6353 -88.4597 294° West 410 472 43,000  Level Minneapolis Center
17:15 44.6861 -88.6342 292° West 414 476 43,000 -300 Level Minneapolis Center
17:17 44.7317 -88.7828 293° West 415 478 42,500 -540 Descending Minneapolis Center
17:18 44.7769 -88.9386 292° West 427 491 41,900 -540 Descending Minneapolis Center
17:19 44.8222 -89.0961 292° West 433 498 41,400 -480 Descending Minneapolis Center
17:20 44.8692 -89.2539 293° West 435 501 41,000 -240 Descending Minneapolis Center
17:21 44.9222 -89.4378 292° West 435 501 41,000  Level Minneapolis Center
17:22 44.9661 -89.5967 291° West 435 501 41,000  Level Minneapolis Center
17:23 45.0114 -89.7522 292° West 431 496 41,000  Level Minneapolis Center
17:24 45.0564 -89.9094 292° West 430 495 41,000  Level Minneapolis Center
17:25 45.1019 -90.0697 292° West 437 503 41,000  Level Minneapolis Center
17:26 45.1467 -90.2308 292° West 438 504 41,000  Level Minneapolis Center
17:27 45.1919 -90.3933 292° West 441 507 41,000  Level Minneapolis Center
17:28 45.2453 -90.5886 291° West 441 507 41,000  Level Minneapolis Center
17:29 45.2911 -90.7536 292° West 446 513 41,000  Level Minneapolis Center
17:30 45.3350 -90.9161 291° West 445 512 41,000  Level Minneapolis Center
17:31 45.3800 -91.0839 291° West 448 516 41,000  Level Minneapolis Center
17:32 45.4278 -91.2592 291° West 454 522 41,000  Level Minneapolis Center
17:33 45.4728 -91.4267 291° West 456 525 41,000  Level Minneapolis Center
17:34 45.5181 -91.5939 291° West 455 524 41,000  Level Minneapolis Center
17:35 45.5694 -91.7886 291° West 445 512 41,000  Level Minneapolis Center
17:36 45.6119 -91.9528 290° West 443 510 41,000  Level Minneapolis Center
17:37 45.6542 -92.1147 291° West 440 506 41,000  Level Minneapolis Center
17:38 45.6950 -92.2761 290° West 436 502 41,000  Level Minneapolis Center
17:39 45.7369 -92.4392 290° West 437 503 41,000  Level Minneapolis Center
17:40 45.7856 -92.6322 290° West 435 501 41,000  Level Minneapolis Center
17:41 45.8261 -92.7956 290° West 436 502 41,000  Level Minneapolis Center
17:42 45.8672 -92.9572 290° West 435 501 41,000  Level Minneapolis Center
17:43 45.9072 -93.1200 290° West 434 499 41,000  Level Minneapolis Center
17:44 45.9469 -93.2819 289° West 432 497 41,000  Level Minneapolis Center
17:45 45.9861 -93.4450 289° West 434 499 41,000  Level Minneapolis Center
17:47 46.0339 -93.6419 289° West 436 502 41,000  Level Minneapolis Center
17:48 46.0722 -93.8047 289° West 433 498 41,000 -240 Level Minneapolis Center
17:49 46.1111 -93.9653 289° West 430 495 40,600 -480 Descending Minneapolis Center
17:50 46.1508 -94.1306 289° West 436 502 40,100 -300 Descending Minneapolis Center
17:51 46.1883 -94.2942 288° West 435 501 40,000 -60 Descending Minneapolis Center
17:52 46.2331 -94.4850 289° West 426 490 40,000  Level Minneapolis Center
17:53 46.2708 -94.6475 289° West 428 493 40,000  Level Minneapolis Center
17:54 46.3075 -94.8086 288° West 425 489 40,000  Level Minneapolis Center
17:55 46.3450 -94.9722 288° West 425 489 40,000  Level Minneapolis Center
17:56 46.3811 -95.1342 288° West 426 490 40,000  Level Minneapolis Center
17:57 46.4178 -95.2978 288° West 426 490 40,000  Level Minneapolis Center
17:58 46.4681 -95.5269 288° West 424 488 40,000  Level Minneapolis Center
17:59 46.5044 -95.6931 288° West 430 495 40,000  Level Minneapolis Center
18:00 46.5406 -95.8581 288° West 431 496 40,000  Level Minneapolis Center
18:01 46.5764 -96.0211 288° West 428 493 40,000  Level Minneapolis Center
18:02 46.6119 -96.1847 288° West 426 490 40,000  Level Minneapolis Center
18:03 46.6469 -96.3492 287° West 426 490 40,000  Level Minneapolis Center
18:04 46.6894 -96.5464 288° West 427 491 40,000  Level Minneapolis Center
18:05 46.7225 -96.7108 286° West 425 489 40,000  Level Minneapolis Center
18:06 46.7594 -96.8739 288° West 425 489 40,000  Level Minneapolis Center
18:07 46.8125 -97.0231 298° West 421 484 40,000  Level Minneapolis Center
18:09 46.8700 -97.1700 300° West 418 481 40,000  Level Minneapolis Center
18:10 46.9347 -97.3486 298° West 416 479 40,000  Level Minneapolis Center
18:11 47.0000 -97.5278 298° West 416 479 40,000  Level Minneapolis Center
18:12 47.0547 -97.6786 298° West 417 480 40,000  Level Minneapolis Center
18:13 47.1078 -97.8306 297° West 417 480 40,000  Level Minneapolis Center
18:14 47.1619 -97.9817 298° West 416 479 40,000  Level Minneapolis Center
18:15 47.2169 -98.1350 298° West 420 483 40,000  Level Minneapolis Center
18:16 47.2694 -98.2872 297° West 417 480 40,000  Level Minneapolis Center
18:17 47.3222 -98.4378 297° West 412 474 40,000  Level Minneapolis Center
18:18 47.3853 -98.6200 297° West 414 476 40,000  Level Minneapolis Center
18:19 47.4381 -98.7711 297° West 414 476 40,000  Level Minneapolis Center
18:20 47.4897 -98.9239 297° West 414 476 40,000  Level Minneapolis Center
18:21 47.5408 -99.0742 297° West 412 474 40,000  Level Minneapolis Center
18:22 47.5925 -99.2267 297° West 413 475 40,000  Level Minneapolis Center
18:23 47.6433 -99.3756 297° West 409 471 40,000  Level Minneapolis Center
18:24 47.7039 -99.5597 296° West 412 474 40,000  Level Minneapolis Center
18:25 47.7550 -99.7119 297° West 413 475 40,000  Level Minneapolis Center
18:26 47.8047 -99.8642 296° West 411 473 40,000  Level Minneapolis Center
18:27 47.8542 -100.0200 295° West 415 478 40,000  Level Minneapolis Center
18:28 47.9061 -100.1728 297° West 413 475 40,000  Level Minneapolis Center
18:29 47.9544 -100.3256 295° West 411 473 40,000  Level Minneapolis Center
18:30 48.0114 -100.5108 295° West 410 472 40,000  Level Minneapolis Center
18:31 48.0636 -100.6633 297° West 411 473 40,000  Level Minneapolis Center
18:32 48.1111 -100.8181 295° West 411 473 40,000  Level Minneapolis Center
18:34 48.1594 -100.9731 295° West 412 474 40,000  Level Minneapolis Center
18:35 48.2114 -101.1389 295° West 414 476 40,000  Level Minneapolis Center
18:36 48.2586 -101.2967 294° West 417 480 40,000  Level Minneapolis Center
18:37 48.2867 -101.4669 284° West 421 484 40,000  Level Minneapolis Center
18:38 48.3183 -101.6756 283° West 427 491 40,000  Level Minneapolis Center
18:39 48.3433 -101.8478 282° West 425 489 40,000  Level Minneapolis Center
18:40 48.3686 -102.0200 283° West 424 488 40,000  Level Minneapolis Center
18:41 48.3956 -102.1917 283° West 424 488 40,000  Level Minneapolis Center
18:42 48.4203 -102.3650 282° West 425 489 40,000  Level Minneapolis Center
18:43 48.4444 -102.5369 282° West 423 487 40,000  Level Minneapolis Center
18:44 48.4739 -102.7444 282° West 424 488 40,000  Level Minneapolis Center
18:45 48.5000 -102.9203 283° West 428 493 40,000  Level Minneapolis Center
18:46 48.5250 -103.0989 282° West 433 498 40,000  Level Minneapolis Center
18:47 48.5494 -103.2733 282° West 432 497 40,000  Level Minneapolis Center
18:48 48.5719 -103.4481 281° West 431 496 40,000  Level Minneapolis Center
18:49 48.5994 -103.6572 281° West 428 493 40,000  Level Minneapolis Center
18:50 48.6228 -103.8325 281° West 428 493 40,000  Level Minneapolis Center
18:51 48.6453 -104.0094 281° West 429 494 40,000  Level Minneapolis Center
18:52 48.6678 -104.1844 281° West 429 494 40,000  Level Minneapolis Center
18:53 48.6897 -104.3625 281° West 429 494 40,000  Level Minneapolis Center
18:54 48.7158 -104.5733 281° West 429 494 40,000  Level Minneapolis Center
18:55 48.7167 -104.7333 271° West 420 483 40,000  Level Winnipeg Center
18:56 48.7436 -104.7842 309° West 429 494 40,000  Level Salt Lake Center
18:57 48.7700 -104.9939 281° West 427 491 40,000  Level Salt Lake Center
18:58 48.7914 -105.1725 280° West 428 493 40,000  Level Salt Lake Center
18:59 48.8111 -105.3506 280° West 429 494 40,000  Level Salt Lake Center
19:00 48.8325 -105.5275 280° West 430 495 40,000  Level Salt Lake Center
19:01 48.8533 -105.7031 280° West 427 491 40,000  Level Salt Lake Center
19:02 48.8725 -105.8792 279° West 425 489 40,000  Level Salt Lake Center
19:03 48.8500 -106.0667 260° West 410 472 40,000  Level Edmonton Center
19:04 48.8667 -106.2167 280° West 410 472 40,000  Level Edmonton Center
19:05 48.9333 -106.4297 296° West 415 478 40,000  Level Salt Lake Center
19:06 48.9167 -106.5500 258° West 420 483 40,000  Level Edmonton Center
19:07 48.9333 -106.7333 278° West 420 483 40,000  Level Edmonton Center
19:08 48.9500 -106.9167 278° West 410 472 40,000  Level Edmonton Center
19:09 48.9833 -107.1000 286° West 420 483 40,000  Level Edmonton Center
19:10 48.9833 -107.2667 270° West 410 472 40,000  Level Edmonton Center
19:11 49.0000 -107.4500 278° West 410 472 40,000  Level Edmonton Center
19:12 49.0333 -107.6000 289° West 410 472 40,000  Level Edmonton Center
19:13 49.0500 -107.7833 278° West 410 472 40,000  Level Edmonton Center
19:14 49.0500 -107.9667 270° West 420 483 40,000  Level Edmonton Center
19:15 49.0667 -108.1167 280° West 410 472 40,000  Level Edmonton Center
19:16 49.0833 -108.3000 278° West 420 483 40,000  Level Edmonton Center
19:17 49.1167 -108.4833 286° West 410 472 40,000  Level Edmonton Center
19:18 49.1167 -108.6667 270° West 420 483 40,000  Level Edmonton Center
19:19 49.1333 -108.8500 278° West 410 472 40,000  Level Edmonton Center
19:20 49.1500 -109.0333 278° West 410 472 40,000  Level Edmonton Center
19:21 49.1667 -109.1833 280° West 410 472 40,000  Level Edmonton Center
19:22 49.1833 -109.3667 278° West 410 472 40,000  Level Edmonton Center
19:23 49.1833 -109.5500 270° West 410 472 40,000  Level Edmonton Center
19:24 49.2167 -109.7000 289° West 410 472 40,000  Level Edmonton Center
19:25 49.2167 -109.8833 270° West 420 483 40,000  Level Edmonton Center
19:26 49.2333 -110.0667 278° West 410 472 40,000  Level Edmonton Center
19:27 49.2333 -110.2500 270° West 420 483 40,000  Level Edmonton Center
19:28 49.2667 -110.4333 286° West 420 483 40,000  Level Edmonton Center
19:29 49.2667 -110.6167 270° West 420 483 40,000  Level Edmonton Center
19:30 49.2833 -110.7667 280° West 420 483 40,000  Level Edmonton Center
19:31 49.3000 -110.9833 277° West 420 483 40,000  Level Edmonton Center
19:32 49.3167 -111.1333 280° West 420 483 40,000  Level Edmonton Center
19:33 49.3167 -111.3167 270° West 410 472 40,000  Level Edmonton Center
19:34 49.3167 -111.5000 270° West 410 472 40,000  Level Edmonton Center
19:35 49.3500 -111.6667 287° West 410 472 40,000  Level Edmonton Center
19:36 49.3500 -111.8500 270° West 410 472 40,000  Level Edmonton Center
19:37 49.3500 -112.0333 270° West 420 483 40,000  Level Edmonton Center
19:38 49.3667 -112.1833 280° West 420 483 40,000  Level Edmonton Center
19:39 49.3833 -112.4000 277° West 410 472 40,000  Level Edmonton Center
19:40 49.3833 -112.5500 270° West 420 483 40,000  Level Edmonton Center
19:41 49.3833 -112.7333 270° West 410 472 40,000  Level Edmonton Center
19:42 49.4167 -112.9167 286° West 410 472 40,000  Level Edmonton Center
19:43 49.4167 -113.1000 270° West 420 483 40,000  Level Edmonton Center
19:44 49.4167 -113.2500 270° West 420 483 40,000  Level Edmonton Center
19:45 49.4333 -113.4500 277° West 400 460 40,000  Level Edmonton Center
19:46 49.4333 -113.6333 270° West 410 472 40,000  Level Edmonton Center
19:47 49.4500 -113.8000 279° West 420 483 40,000  Level Edmonton Center
19:48 49.4667 -114.0000 277° West 420 483 40,000  Level Edmonton Center
19:49 49.4667 -114.1833 270° West 420 483 40,000  Level Edmonton Center
19:50 49.4667 -114.3333 270° West 420 483 40,000  Level Edmonton Center
19:51 49.4833 -114.5167 278° West 420 483 40,000  Level Edmonton Center
19:52 49.4833 -114.7000 270° West 420 483 40,000  Level Edmonton Center
19:53 49.4833 -114.8833 270° West 420 483 40,000  Level Edmonton Center
19:54 49.5000 -115.0667 278° West 420 483 40,000  Level Edmonton Center
19:55 49.5000 -115.2500 270° West 410 472 40,000  Level Edmonton Center
19:56 49.5000 -115.4333 270° West 410 472 40,000  Level Edmonton Center
19:57 49.5000 -115.6000 270° West 420 483 40,000  Level Edmonton Center
19:58 49.5167 -115.7833 278° West 410 472 40,000  Level Edmonton Center
19:59 49.5167 -115.9667 270° West 420 483 40,000  Level Edmonton Center
20:00 49.5333 -116.1500 278° West 410 472 40,000  Level Edmonton Center
20:01 49.5500 -116.3167 279° West 410 472 40,000  Level Edmonton Center
20:02 49.5833 -116.5000 286° West 430 495 40,000  Level Edmonton Center
20:03 49.6000 -116.6667 279° West 420 483 40,000  Level Edmonton Center
20:04 49.6167 -116.8500 278° West 420 483 40,000  Level Edmonton Center
20:05 49.6667 -117.0167 295° West 420 483 40,000 -60 Level Vancouver Center
20:06 49.6833 -117.2167 277° West 420 483 39,900 -900 Descending Vancouver Center
20:07 49.7167 -117.3833 287° West 430 495 38,300 -1,920 Descending Vancouver Center
20:08 49.7333 -117.5667 278° West 420 483 36,100 -2,340 Descending Vancouver Center
20:09 49.7667 -117.7167 289° West 410 472 33,700 -2,520 Descending Vancouver Center
20:10 49.7667 -117.9333 270° West 430 495 31,100 -2,340 Descending Vancouver Center
20:11 49.8000 -118.1000 287° West 440 506 29,100 -2,400 Descending Vancouver Center
20:12 49.8167 -118.2833 278° West 440 506 26,400 -3,000 Descending Vancouver Center
20:13 49.8500 -118.4667 286° West 420 483 23,200 -3,300 Descending Vancouver Center
20:14 49.8500 -118.6500 270° West 410 472 19,800 -3,540 Descending Vancouver Center
20:15 49.9000 -118.8000 297° West 400 460 16,200 -3,300 Descending Vancouver Center
20:16 49.9333 -118.9500 289° West 390 449 13,200 -2,520 Descending Vancouver Center
20:17 50.0000 -119.1000 305° West 360 414 11,200 -1,500 Descending Vancouver Center
20:18 50.0333 -119.2167 294° West 340 391 10,200 -960 Descending Vancouver Center
20:19 50.1000 -119.2667 334° Northwest 290 334 9,300 -1,200 Descending Vancouver Center
20:20 50.1667 -119.2333 18° North 290 334 7,800 -1,620 Descending Vancouver Center
20:21 50.2000 -119.3167 302° West 220 253 6,100 -1,020 Descending Vancouver Center
20:22 50.1500 -119.3333 192° South 180 207 5,800 -600 Descending Vancouver Center
20:23 50.1167 -119.3667 213° Southwest 160 184 5,000 -900 Descending Vancouver Center
20:24 50.0667 -119.3833 192° South 160 184 4,000 -960 Descending Vancouver Center
20:25 50.0333 -119.3833 180° South 150 173 3,100 -900 Descending Vancouver Center
20:26 49.9833 -119.3500 157° South 150 173 2,200 -900 Descending Vancouver Center
20:27 49.9500 -119.3667 198° South 140 161 1,400 -420 Descending Vancouver Center
20:28 49.9333 -119.3667 180° South 40 46 1,400  Level Vancouver Center
20:29 49.9333 -119.3667 180° South 10 12 1,400  Level Vancouver Center